North Woodmere, New York
Current Conditions -  °F | °C
As of 4:51 AM on Tuesday 21 Oct 2014 (Local Time) from KJFK Reporting Station
Overcast Overcast  
Wind Chill: 56°   Ceiling: 14000
Heat Index: 56°   Visibility: 10mi
Dew Point: 46°   Wind: 3mph
Humidity: 69%   Direction: 210°SSW
Pressure: 29.91"   Gusts: NA
Location:  40.6532°N, 73.7131°W
Report Text: KJFK 210851Z 21003KT 10SM SCT050 OVC140 13/08 A2991 RMK AO2 SLP128 T01330078 56015
Loading
Personal Weather Stations






























Interactive Weather Map
Tropical Storm Tracking
New forecast layout! Learn more

10-Day Weather Forecast

Advertisements
Track Severe Weather on mobile